createdAt,value
2023-04-16T07:32:29.875Z,23.33
2023-04-16T07:34:58.001Z,23.27
2023-04-16T07:37:25.975Z,26.23
2023-04-16T07:39:56.239Z,25.63
2023-04-16T07:42:25.458Z,25.73
2023-04-16T07:44:53.348Z,24.67
2023-04-16T07:47:23.055Z,27.98
2023-04-16T07:49:52.439Z,22.83
2023-04-16T07:52:20.718Z,20.02
2023-04-16T07:54:48.727Z,23.05
2023-04-16T07:57:16.724Z,32.75
2023-04-16T07:59:44.648Z,24.65
2023-04-16T08:02:15.429Z,18.23
2023-04-16T08:04:44.172Z,24.05
2023-04-16T08:07:13.645Z,22.90
2023-04-16T08:09:49.576Z,21.33
2023-04-16T08:12:17.840Z,24.95
2023-04-16T08:14:46.428Z,26.10
2023-04-16T08:17:14.589Z,19.85
2023-04-16T08:19:43.822Z,19.33
2023-04-16T08:22:13.421Z,19.55
2023-04-16T08:24:41.662Z,21.25
2023-04-16T08:27:18.597Z,25.98
2023-04-16T08:29:50.822Z,24.77
2023-04-16T08:32:18.889Z,23.25
2023-04-16T08:34:46.866Z,19.80
2023-04-16T08:37:16.276Z,17.85
2023-04-16T08:39:44.284Z,20.63
2023-04-16T08:42:19.881Z,17.75
2023-04-16T08:44:50.434Z,22.48
2023-04-16T08:47:18.541Z,21.00
2023-04-16T08:49:46.853Z,19.95
2023-04-16T08:52:20.915Z,18.40
2023-04-16T08:54:56.803Z,15.98
2023-04-16T08:57:26.582Z,21.17
2023-04-16T08:59:56.909Z,23.27
2023-04-16T09:02:27.057Z,21.63
2023-04-16T09:04:56.050Z,20.20
2023-04-16T09:07:26.887Z,20.90
2023-04-16T09:09:55.772Z,19.95
2023-04-16T09:12:25.488Z,19.50
2023-04-16T09:14:53.518Z,17.95
2023-04-16T09:17:21.508Z,16.52
2023-04-16T09:19:49.530Z,17.70
2023-04-16T09:22:17.917Z,22.60
2023-04-16T09:24:47.283Z,20.53
2023-04-16T09:27:16.549Z,19.27
2023-04-16T09:29:44.520Z,15.63
2023-04-16T09:32:13.173Z,18.90
2023-04-16T09:34:58.312Z,18.95
2023-04-16T09:37:27.165Z,21.92
2023-04-16T09:39:57.985Z,18.80
2023-04-16T09:42:28.153Z,17.40
2023-04-16T09:44:59.392Z,24.15
2023-04-16T09:47:41.067Z,19.27
2023-04-16T09:50:11.972Z,21.60
2023-04-16T09:52:40.901Z,19.15
2023-04-16T09:55:10.290Z,22.75
2023-04-16T09:57:39.702Z,19.42
2023-04-16T10:00:10.327Z,18.33
2023-04-16T10:02:42.396Z,24.95
2023-04-16T10:05:16.788Z,25.07
2023-04-16T10:07:44.801Z,20.73
2023-04-16T10:10:14.414Z,20.63
2023-04-16T10:12:43.608Z,20.00
2023-04-16T10:15:12.433Z,22.27
2023-04-16T10:17:40.829Z,26.25
2023-04-16T10:20:09.959Z,23.85
2023-04-16T10:22:38.452Z,22.30
2023-04-16T10:25:07.853Z,19.10
2023-04-16T10:27:38.363Z,20.33
2023-04-16T10:30:08.759Z,20.20
2023-04-16T10:32:38.066Z,24.75
2023-04-16T10:35:07.023Z,19.60
2023-04-16T10:37:35.011Z,27.67
2023-04-16T10:40:03.817Z,26.88
2023-04-16T10:42:33.557Z,21.95
2023-04-16T10:45:04.212Z,23.30
2023-04-16T10:47:32.311Z,28.95
2023-04-16T10:50:00.654Z,19.85
2023-04-16T10:52:31.222Z,16.95
2023-04-16T10:55:00.881Z,25.30
2023-04-16T10:57:30.658Z,20.05
2023-04-16T10:59:59.389Z,28.90
2023-04-16T11:02:30.709Z,21.07
2023-04-16T11:04:59.077Z,19.40
2023-04-16T11:07:34.669Z,19.63
2023-04-16T11:10:05.435Z,16.43
2023-04-16T11:12:37.716Z,16.30
2023-04-16T11:15:08.034Z,21.33
2023-04-16T11:17:40.842Z,18.33
2023-04-16T11:20:19.943Z,22.08
2023-04-16T11:22:50.044Z,18.25
2023-04-16T11:25:22.204Z,24.20
2023-04-16T11:27:50.488Z,28.03
2023-04-16T11:30:19.162Z,24.60
2023-04-16T11:32:48.677Z,23.77
2023-04-16T11:35:19.798Z,20.17
2023-04-16T11:37:48.299Z,22.40
2023-04-16T11:40:16.710Z,22.73
2023-04-16T11:42:44.894Z,23.20
2023-04-16T11:45:13.941Z,28.00
2023-04-16T11:47:46.676Z,17.20
2023-04-16T11:50:21.954Z,24.15
2023-04-16T11:52:50.386Z,18.63
2023-04-16T11:55:18.765Z,18.70
2023-04-16T11:57:47.297Z,19.30
2023-04-16T12:00:16.007Z,20.43
2023-04-16T12:02:45.604Z,16.10
2023-04-16T12:05:32.116Z,17.55
2023-04-16T12:08:01.721Z,16.17
2023-04-16T12:10:30.665Z,17.80
2023-04-16T12:13:12.051Z,14.32
2023-04-16T12:15:47.707Z,19.33
2023-04-16T12:18:16.259Z,16.98
2023-04-16T12:20:46.582Z,20.88
2023-04-16T12:23:24.593Z,15.32
2023-04-16T12:25:52.906Z,21.40
2023-04-16T12:28:31.707Z,22.00
2023-04-16T12:30:59.956Z,19.45
2023-04-16T12:33:28.041Z,20.77
2023-04-16T12:35:57.451Z,23.83
2023-04-16T12:38:26.857Z,20.65
2023-04-16T12:40:57.134Z,16.80
2023-04-16T12:43:26.014Z,21.38
2023-04-16T12:45:54.002Z,16.77
2023-04-16T12:48:21.995Z,19.27
2023-04-16T12:50:50.206Z,16.77
2023-04-16T12:53:19.543Z,21.33
2023-04-16T12:55:47.547Z,15.52
2023-04-16T12:58:15.586Z,18.67
2023-04-16T13:00:43.592Z,18.52
2023-04-16T13:03:12.128Z,17.87
2023-04-16T13:05:41.386Z,15.68
2023-04-16T13:08:09.333Z,20.80
2023-04-16T13:10:38.899Z,14.45
2023-04-16T13:13:06.985Z,15.07
2023-04-16T13:15:35.038Z,17.53
2023-04-16T13:18:03.100Z,16.17
2023-04-16T13:20:31.191Z,19.10
2023-04-16T13:22:59.150Z,13.23
2023-04-16T13:25:27.137Z,18.98
2023-04-16T13:27:56.481Z,16.75
2023-04-16T13:30:25.415Z,15.68
2023-04-16T13:32:53.396Z,18.33
2023-04-16T13:35:21.403Z,20.80
2023-04-16T13:37:49.385Z,19.00
2023-04-16T13:40:17.508Z,21.63
2023-04-16T13:42:45.493Z,14.68
2023-04-16T13:45:14.848Z,20.20
2023-04-16T13:47:44.214Z,20.38
2023-04-16T13:50:12.387Z,20.73
2023-04-16T13:52:40.357Z,16.00
2023-04-16T13:55:09.640Z,17.70
2023-04-16T13:57:37.714Z,21.37
2023-04-16T14:00:07.088Z,18.80
2023-04-16T14:02:36.724Z,23.08
2023-04-16T14:05:05.165Z,19.20
2023-04-16T14:07:33.113Z,24.50
2023-04-16T14:10:01.083Z,19.93
2023-04-16T14:12:29.091Z,23.02
2023-04-16T14:14:57.407Z,24.25
2023-04-16T14:17:25.570Z,21.07
2023-04-16T14:19:54.947Z,19.38
2023-04-16T14:22:22.910Z,27.42
2023-04-16T14:24:50.924Z,26.10
2023-04-16T14:27:18.928Z,23.65
2023-04-16T14:29:47.405Z,27.13
2023-04-16T14:32:15.756Z,23.33
2023-04-16T14:34:43.700Z,32.22
2023-04-16T14:37:13.093Z,27.02
2023-04-16T14:39:41.149Z,31.23
2023-04-16T14:42:09.105Z,26.25
2023-04-16T14:44:37.121Z,35.42
2023-04-16T14:47:05.252Z,27.65
2023-04-16T14:49:34.397Z,30.98
2023-04-16T14:52:05.222Z,28.05
2023-04-16T14:54:34.743Z,30.52
2023-04-16T14:57:03.410Z,31.98
2023-04-16T14:59:31.512Z,33.50
2023-04-16T15:02:00.265Z,29.58
2023-04-16T15:04:28.442Z,29.87
2023-04-16T15:06:58.936Z,30.93
2023-04-16T15:09:27.586Z,30.13
2023-04-16T15:11:57.144Z,24.40
2023-04-16T15:14:25.209Z,25.05
2023-04-16T15:16:53.356Z,35.33
2023-04-16T15:19:21.464Z,33.92
2023-04-16T15:21:50.130Z,38.17
2023-04-16T15:24:18.157Z,30.80
2023-04-16T15:26:46.563Z,32.67
2023-04-16T15:29:15.861Z,35.00
2023-04-16T15:31:43.897Z,31.05
2023-04-16T15:34:11.937Z,29.60
2023-04-16T15:36:40.062Z,32.45
2023-04-16T15:39:08.622Z,44.38
2023-04-16T15:41:46.958Z,67.07
2023-04-16T15:44:26.760Z,67.10
2023-04-16T15:46:56.500Z,45.10
2023-04-16T15:49:24.740Z,48.90
2023-04-16T15:52:59.314Z,46.80
2023-04-16T15:55:27.341Z,38.58
2023-04-16T15:57:55.979Z,39.43
2023-04-16T16:00:23.970Z,39.78
2023-04-16T16:02:52.139Z,34.05
2023-04-16T16:05:20.336Z,41.88
2023-04-16T16:07:48.503Z,38.53
2023-04-16T16:10:17.865Z,33.00
2023-04-16T16:12:46.450Z,32.63
2023-04-16T16:15:14.387Z,31.48
2023-04-16T16:17:42.353Z,35.53
2023-04-16T16:20:11.006Z,32.28
2023-04-16T16:22:39.279Z,32.10
2023-04-16T16:25:07.849Z,38.28
2023-04-16T16:27:37.266Z,36.67
2023-04-16T16:30:07.406Z,28.80
2023-04-16T16:32:35.410Z,36.40
2023-04-16T16:35:03.456Z,36.30
2023-04-16T16:37:31.376Z,31.83
2023-04-16T16:39:59.372Z,34.80
2023-04-16T16:42:27.495Z,29.15
2023-04-16T16:44:57.543Z,26.15
2023-04-16T16:47:25.724Z,29.35
2023-04-16T16:49:54.648Z,30.70
2023-04-16T16:52:24.667Z,29.95
2023-04-16T16:54:53.611Z,28.98
2023-04-16T16:57:21.723Z,26.23
2023-04-16T16:59:50.382Z,33.35
2023-04-16T17:02:19.937Z,29.42
2023-04-16T17:04:47.976Z,24.20
2023-04-16T17:07:15.993Z,28.60
2023-04-16T17:09:43.938Z,28.83
2023-04-16T17:12:11.861Z,28.25
2023-04-16T17:14:39.788Z,28.30
2023-04-16T17:17:07.744Z,24.70
2023-04-16T17:19:37.007Z,24.13
2023-04-16T17:22:05.117Z,26.60
2023-04-16T17:24:33.025Z,26.85
2023-04-16T17:27:01.608Z,29.15
2023-04-16T17:29:30.239Z,25.08
2023-04-16T17:31:58.320Z,24.17
2023-04-16T17:34:26.340Z,27.40
2023-04-16T17:36:55.671Z,28.20
2023-04-16T17:39:23.642Z,28.95
2023-04-16T17:41:54.715Z,25.90
2023-04-16T17:44:25.653Z,24.53
2023-04-16T17:46:53.638Z,30.23
2023-04-16T17:49:21.652Z,32.92
2023-04-16T17:51:49.670Z,33.90
2023-04-16T17:54:18.909Z,29.55
2023-04-16T17:56:47.132Z,34.00
2023-04-16T17:59:15.056Z,33.30
2023-04-16T18:01:43.099Z,30.35
2023-04-16T18:04:11.659Z,33.88
2023-04-16T18:06:39.960Z,36.65
2023-04-16T18:09:08.419Z,34.05
2023-04-16T18:11:37.715Z,38.63
2023-04-16T18:14:05.709Z,36.80
2023-04-16T18:16:33.763Z,37.15
2023-04-16T18:19:01.710Z,42.40
2023-04-16T18:21:30.365Z,39.13
2023-04-16T18:24:00.421Z,35.67
2023-04-16T18:26:29.973Z,38.38
2023-04-16T18:28:59.966Z,33.83
2023-04-16T18:31:28.327Z,36.33
2023-04-16T18:33:58.379Z,33.53
2023-04-16T18:36:27.258Z,38.72
2023-04-16T18:41:27.032Z,34.17
2023-04-16T18:43:55.070Z,33.15
2023-04-16T18:46:25.317Z,38.38
2023-04-16T18:48:53.501Z,39.15
2023-04-16T18:51:21.469Z,36.00
2023-04-16T18:53:49.401Z,39.95
2023-04-16T18:56:17.390Z,38.97
2023-04-16T18:58:45.304Z,39.28
2023-04-16T19:01:14.078Z,37.15
2023-04-16T19:03:43.523Z,44.17
2023-04-16T19:06:11.581Z,38.90
2023-04-16T19:08:39.539Z,43.90
2023-04-16T19:11:07.462Z,38.70
2023-04-16T19:13:35.411Z,43.30
2023-04-16T19:16:05.974Z,42.95
2023-04-16T19:18:33.973Z,39.20
2023-04-16T19:21:03.431Z,43.83
2023-04-16T19:23:31.540Z,44.13
2023-04-16T19:26:01.334Z,43.95
2023-04-16T19:28:29.580Z,41.30
2023-04-16T19:30:57.497Z,44.55
2023-04-16T19:33:25.436Z,47.75
2023-04-16T19:35:53.467Z,44.03
2023-04-16T19:38:22.983Z,46.22
2023-04-16T19:40:50.912Z,40.40
2023-04-16T19:43:18.864Z,41.77
2023-04-16T19:45:48.437Z,44.45
2023-04-16T19:48:16.382Z,44.92
2023-04-16T19:50:45.125Z,44.63
2023-04-16T19:53:13.319Z,41.35
2023-04-16T19:55:43.201Z,38.60
2023-04-16T19:58:11.087Z,33.45
2023-04-16T20:00:41.145Z,36.08
2023-04-16T20:03:09.174Z,38.78
2023-04-16T20:05:37.154Z,32.50
2023-04-16T20:08:05.498Z,30.02
2023-04-16T20:10:33.635Z,28.80
2023-04-16T20:13:02.938Z,31.55
2023-04-16T20:15:30.876Z,31.10
2023-04-16T20:17:58.930Z,31.35
2023-04-16T20:20:27.325Z,32.65
2023-04-16T20:22:55.420Z,30.42
2023-04-16T20:25:26.189Z,29.95
2023-04-16T20:27:54.195Z,28.38
2023-04-16T20:30:28.755Z,31.10
2023-04-16T20:32:56.863Z,25.77
2023-04-16T20:35:24.894Z,26.33
2023-04-16T20:37:52.849Z,29.08
2023-04-16T20:40:21.190Z,30.38
2023-04-16T20:42:51.986Z,31.03
2023-04-16T20:45:20.237Z,30.33
2023-04-16T20:47:49.638Z,29.35
2023-04-16T20:50:17.761Z,30.80
2023-04-16T20:52:45.669Z,30.98
2023-04-16T20:55:13.586Z,32.33
2023-04-16T20:57:41.531Z,36.58
2023-04-16T21:00:12.086Z,35.15
2023-04-16T21:02:40.879Z,36.53
2023-04-16T21:05:14.032Z,32.20
2023-04-16T21:07:42.645Z,35.65
2023-04-16T21:10:11.520Z,36.28
2023-04-16T21:12:39.495Z,32.60
2023-04-16T21:15:08.286Z,35.77
2023-04-16T21:17:36.349Z,38.42
2023-04-16T21:20:06.962Z,32.67
2023-04-16T21:22:36.378Z,37.20
2023-04-16T21:25:04.610Z,37.08
2023-04-16T21:27:32.497Z,30.67
2023-04-16T21:30:00.457Z,37.53
2023-04-16T21:32:28.478Z,36.67
2023-04-16T21:34:56.394Z,32.45
2023-04-16T21:37:24.326Z,32.53
2023-04-16T21:39:53.663Z,35.50
2023-04-16T21:42:21.618Z,34.47
2023-04-16T21:44:49.638Z,35.63
2023-04-16T21:47:17.646Z,37.47
2023-04-16T21:49:46.091Z,33.80
2023-04-16T21:52:18.125Z,33.83
2023-04-16T21:54:46.865Z,36.45
2023-04-16T21:57:16.138Z,35.63
2023-04-16T21:59:44.095Z,34.95
2023-04-16T22:02:12.074Z,38.43
2023-04-16T22:04:40.160Z,34.67
2023-04-16T22:07:09.548Z,33.85
2023-04-16T22:09:37.702Z,34.65
2023-04-16T22:12:10.118Z,35.80
2023-04-16T22:14:46.224Z,34.70
2023-04-16T22:17:23.856Z,35.23
2023-04-16T22:19:53.446Z,34.08
2023-04-16T22:22:21.957Z,33.03
2023-04-16T22:24:50.008Z,33.75
2023-04-16T22:27:18.074Z,33.20
2023-04-16T22:29:47.443Z,33.80
2023-04-16T22:32:15.449Z,31.98
2023-04-16T22:34:43.378Z,32.33
2023-04-16T22:37:11.437Z,34.08
2023-04-16T22:39:39.390Z,30.60
2023-04-16T22:42:07.441Z,31.83
2023-04-16T22:44:36.967Z,30.67
2023-04-16T22:47:06.435Z,29.90
2023-04-16T22:49:35.018Z,30.50
2023-04-16T22:52:03.477Z,31.77
2023-04-16T22:54:31.919Z,31.92
2023-04-16T22:56:59.960Z,31.40
2023-04-16T22:59:27.919Z,31.30
2023-04-16T23:01:56.077Z,32.33
2023-04-16T23:04:25.570Z,29.55
2023-04-16T23:06:53.606Z,30.83
2023-04-16T23:09:22.501Z,31.42
2023-04-16T23:11:50.509Z,28.75
2023-04-16T23:14:18.662Z,28.63
2023-04-16T23:16:46.638Z,28.58
2023-04-16T23:19:14.852Z,32.20
2023-04-16T23:21:44.591Z,28.02
2023-04-16T23:24:12.535Z,32.80
2023-04-16T23:26:40.552Z,30.88
2023-04-16T23:29:08.626Z,32.47
2023-04-16T23:31:36.784Z,33.47
2023-04-16T23:34:04.768Z,32.45
2023-04-16T23:36:32.750Z,33.08
2023-04-16T23:39:02.124Z,31.90
2023-04-16T23:41:30.169Z,33.42
2023-04-16T23:43:58.577Z,35.22
2023-04-16T23:46:26.637Z,32.85
2023-04-16T23:48:55.209Z,35.67
2023-04-16T23:51:23.216Z,34.38
2023-04-16T23:53:51.192Z,30.92
2023-04-16T23:56:20.627Z,34.85
2023-04-16T23:58:48.580Z,34.55
